Time;durP1;ratioP1;P1;durP2;ratioP2;P2;SDS_P1;SDS_P2;PMS_P1;PMS_P2;Temp;Humidity;BMP_temperature;BMP_pressure;BME280_temperature;BME280_humidity;BME280_pressure;Samples;Min_cycle;Max_cycle;Signal;HPM_P1;HPM_P2
2022/06/18 00:00:17;;;;;;;8.60;5.25;;;20.30;99.90;;;;;;4983036;28;20050;-87
2022/06/18 00:02:43;;;;;;;9.35;5.40;;;20.20;99.90;;;;;;4995429;28;20073;-87
2022/06/18 00:05:11;;;;;;;8.93;5.45;;;20.20;99.90;;;;;;4977237;28;20085;-88
2022/06/18 00:07:42;;;;;;;10.65;5.60;;;20.20;99.90;;;;;;4984893;28;20049;-88
2022/06/18 00:10:13;;;;;;;10.57;5.57;;;20.20;99.90;;;;;;5001959;28;20073;-87
2022/06/18 00:15:33;;;;;;;9.38;5.32;;;20.20;99.90;;;;;;4999168;28;20064;-87
2022/06/18 00:17:59;;;;;;;8.90;5.72;;;20.10;99.90;;;;;;4986657;28;20034;-87
2022/06/18 00:20:29;;;;;;;8.45;5.95;;;20.10;99.90;;;;;;4986538;28;20517;-88
2022/06/18 00:22:57;;;;;;;8.80;6.00;;;20.10;99.90;;;;;;4988784;28;20039;-88
2022/06/18 00:25:36;;;;;;;9.38;5.85;;;20.10;99.90;;;;;;4971535;28;20141;-88
2022/06/18 00:28:26;;;;;;;8.77;6.13;;;20.10;99.90;;;;;;4980152;28;20061;-87
2022/06/18 00:30:52;;;;;;;8.88;5.78;;;20.10;99.90;;;;;;4994694;28;20076;-88
2022/06/18 00:33:19;;;;;;;8.98;6.00;;;20.10;99.90;;;;;;4986939;28;20034;-88
2022/06/18 00:35:47;;;;;;;8.88;5.85;;;20.10;99.90;;;;;;4985010;28;20077;-88
2022/06/18 00:38:23;;;;;;;8.32;6.38;;;20.00;99.90;;;;;;4997883;28;20042;-88
2022/06/18 00:40:49;;;;;;;8.90;6.00;;;20.00;99.90;;;;;;4996599;28;20038;-87
2022/06/18 00:43:50;;;;;;;9.68;6.18;;;20.10;99.90;;;;;;4990106;28;20402;-88
2022/06/18 00:46:21;;;;;;;9.35;6.78;;;20.00;99.90;;;;;;4979507;28;20108;-88
2022/06/18 00:48:55;;;;;;;11.48;6.63;;;20.00;99.90;;;;;;4986385;28;20176;-88
2022/06/18 00:51:27;;;;;;;9.68;7.00;;;20.00;99.90;;;;;;5005243;28;20046;-87
2022/06/18 00:54:02;;;;;;;8.93;6.22;;;20.00;99.90;;;;;;5002340;28;20042;-87
2022/06/18 00:56:43;;;;;;;9.65;6.40;;;20.00;99.90;;;;;;4988174;28;20046;-88
2022/06/18 00:59:27;;;;;;;9.45;6.82;;;20.00;99.90;;;;;;4995165;28;20411;-87
2022/06/18 01:01:55;;;;;;;10.05;6.75;;;20.00;99.90;;;;;;4986449;28;20062;-87
2022/06/18 01:04:22;;;;;;;10.65;7.93;;;20.00;99.90;;;;;;4996195;28;20138;-87
2022/06/18 01:06:48;;;;;;;11.32;6.95;;;20.00;99.90;;;;;;4979426;28;20050;-87
2022/06/18 01:09:17;;;;;;;12.23;7.55;;;20.00;99.90;;;;;;4996731;28;20050;-88
2022/06/18 01:11:46;;;;;;;10.45;7.50;;;20.00;99.90;;;;;;4991124;28;20145;-88
2022/06/18 01:14:15;;;;;;;10.73;7.53;;;20.00;99.90;;;;;;5003293;28;20077;-88
2022/06/18 01:16:41;;;;;;;10.98;7.75;;;20.00;99.90;;;;;;4990441;28;20054;-87
2022/06/18 01:19:17;;;;;;;11.02;7.50;;;19.90;99.90;;;;;;4981620;28;20674;-88
2022/06/18 01:21:52;;;;;;;10.40;7.90;;;19.90;99.90;;;;;;4995769;28;20046;-88
2022/06/18 01:24:23;;;;;;;9.93;7.85;;;19.90;99.90;;;;;;4989765;28;20097;-88
2022/06/18 01:26:50;;;;;;;;;;;19.80;99.90;;;;;;4976487;28;20046;-87
2022/06/18 01:29:16;;;;;;;10.27;8.05;;;19.70;99.90;;;;;;4988609;28;20297;-87
2022/06/18 01:31:43;;;;;;;9.93;7.78;;;19.70;99.90;;;;;;4975199;28;20230;-87
2022/06/18 01:34:09;;;;;;;11.07;8.82;;;19.70;99.90;;;;;;5005307;28;20390;-88
2022/06/18 01:36:36;;;;;;;11.07;8.45;;;19.70;99.90;;;;;;4992705;28;20042;-88
2022/06/18 01:39:05;;;;;;;11.93;8.40;;;19.70;99.90;;;;;;5000512;28;20042;-87
2022/06/18 01:41:52;;;;;;;11.60;8.38;;;19.70;99.90;;;;;;4986675;28;20043;-87
2022/06/18 01:44:31;;;;;;;10.68;8.45;;;19.70;99.90;;;;;;4981868;28;20124;-88
2022/06/18 01:47:03;;;;;;;12.20;8.23;;;19.70;99.90;;;;;;5011997;28;20046;-87
2022/06/18 01:49:35;;;;;;;11.23;8.73;;;19.70;99.90;;;;;;4988340;28;20049;-88
2022/06/18 01:52:03;;;;;;;11.73;8.45;;;19.60;99.90;;;;;;4985735;28;20483;-87
2022/06/18 01:54:34;;;;;;;11.77;8.77;;;19.60;99.90;;;;;;4994123;28;20038;-88
2022/06/18 01:57:03;;;;;;;11.43;8.82;;;19.60;99.90;;;;;;4989003;28;20111;-87
2022/06/18 01:59:34;;;;;;;12.20;8.65;;;19.60;99.90;;;;;;4989152;28;20042;-87
2022/06/18 02:02:03;;;;;;;12.18;9.48;;;19.60;99.90;;;;;;4994476;28;20137;-88
2022/06/18 02:04:30;;;;;;;11.43;8.65;;;19.60;99.90;;;;;;4999846;28;20120;-88
2022/06/18 02:06:55;;;;;;;10.65;8.05;;;19.60;99.90;;;;;;4990033;28;20074;-87
2022/06/18 02:09:56;;;;;;;11.25;8.77;;;19.60;99.90;;;;;;4989237;28;20519;-87
2022/06/18 02:12:26;;;;;;;11.50;9.15;;;19.60;99.90;;;;;;4956068;28;20090;-88
2022/06/18 02:14:59;;;;;;;11.35;8.90;;;19.50;99.90;;;;;;4994788;28;20078;-88
2022/06/18 02:17:26;;;;;;;10.82;9.00;;;19.50;99.90;;;;;;5001846;28;20125;-87
2022/06/18 02:20:08;;;;;;;12.90;9.15;;;19.50;99.90;;;;;;5004485;28;20513;-87
2022/06/18 02:22:54;;;;;;;10.00;8.77;;;19.50;99.90;;;;;;4992687;28;20112;-87
2022/06/18 02:25:22;;;;;;;12.82;9.73;;;19.40;99.90;;;;;;4989022;28;20069;-87
2022/06/18 02:27:50;;;;;;;10.32;9.23;;;19.40;99.90;;;;;;4990000;28;20061;-87
2022/06/18 02:30:19;;;;;;;11.52;9.23;;;19.40;99.90;;;;;;4989896;28;20138;-88
2022/06/18 02:33:03;;;;;;;12.57;9.45;;;19.40;99.90;;;;;;4990056;28;20092;-87
2022/06/18 02:35:34;;;;;;;10.93;9.43;;;19.30;99.90;;;;;;4988195;28;20061;-87
2022/06/18 02:38:00;;;;;;;11.70;9.50;;;19.40;99.90;;;;;;4989950;28;20042;-87
2022/06/18 02:40:29;;;;;;;11.70;9.07;;;19.30;99.90;;;;;;4971913;28;20049;-88
2022/06/18 02:42:59;;;;;;;11.50;9.27;;;19.40;99.90;;;;;;4989938;28;20380;-87
2022/06/18 02:45:27;;;;;;;11.43;9.85;;;19.40;99.90;;;;;;4989989;28;20068;-87
2022/06/18 02:47:56;;;;;;;12.48;9.63;;;19.40;99.90;;;;;;4973036;28;20081;-87
2022/06/18 02:50:25;;;;;;;12.90;10.25;;;19.40;99.90;;;;;;4989307;28;20120;-87
2022/06/18 02:52:53;;;;;;;12.43;10.27;;;19.40;99.90;;;;;;4989015;28;20042;-87
2022/06/18 02:55:19;;;;;;;12.88;10.85;;;19.40;99.90;;;;;;4990593;28;20384;-87
2022/06/18 02:57:48;;;;;;;12.80;10.68;;;19.40;99.90;;;;;;4988828;28;20050;-88
2022/06/18 03:00:14;;;;;;;12.00;10.70;;;19.40;99.90;;;;;;4988040;28;20042;-87
2022/06/18 03:02:40;;;;;;;12.77;10.57;;;19.30;99.90;;;;;;4988599;28;20046;-87
2022/06/18 03:05:06;;;;;;;12.65;10.90;;;19.30;99.90;;;;;;4988762;28;20074;-86
2022/06/18 03:07:32;;;;;;;14.25;11.40;;;19.30;99.90;;;;;;4988662;28;20041;-87
2022/06/18 03:12:41;;;;;;;12.25;10.95;;;19.30;99.90;;;;;;4989444;28;20073;-87
2022/06/18 03:15:07;;;;;;;13.20;11.70;;;19.30;99.90;;;;;;4971697;28;20039;-87
2022/06/18 03:17:33;;;;;;;13.43;11.68;;;19.30;99.90;;;;;;4989192;28;20133;-86
2022/06/18 03:20:04;;;;;;;13.93;12.02;;;19.30;99.90;;;;;;4989301;28;20046;-87
2022/06/18 03:22:29;;;;;;;;;;;19.30;99.90;;;;;;4988927;28;20045;-87
2022/06/18 03:24:55;;;;;;;13.73;12.32;;;19.20;99.90;;;;;;4972577;28;19925;-87
2022/06/18 03:27:20;;;;;;;15.27;12.00;;;19.20;99.90;;;;;;4988436;28;20285;-87
2022/06/18 03:29:47;;;;;;;14.23;11.75;;;19.20;99.90;;;;;;4985500;28;20072;-86
2022/06/18 03:32:13;;;;;;;13.32;11.93;;;19.30;99.90;;;;;;4998208;28;20042;-86
2022/06/18 03:34:39;;;;;;;13.90;11.90;;;19.20;99.90;;;;;;4988840;28;20141;-87
2022/06/18 03:37:05;;;;;;;14.43;11.63;;;19.30;99.90;;;;;;4992434;28;20153;-87
2022/06/18 03:39:31;;;;;;;12.93;11.48;;;19.30;99.90;;;;;;4998609;28;20574;-87
2022/06/18 03:41:58;;;;;;;12.48;11.25;;;19.20;99.90;;;;;;5003074;28;20053;-87
2022/06/18 03:44:25;;;;;;;15.75;12.05;;;19.20;99.90;;;;;;4993871;28;20518;-87
2022/06/18 03:46:51;;;;;;;13.80;11.88;;;19.20;99.90;;;;;;5003815;28;20042;-88
2022/06/18 03:49:28;;;;;;;14.50;12.25;;;19.20;99.90;;;;;;4987669;28;20042;-87
2022/06/18 03:51:55;;;;;;;14.38;11.93;;;19.10;99.90;;;;;;4990306;28;20046;-87
2022/06/18 03:54:22;;;;;;;14.38;11.90;;;19.20;99.90;;;;;;4989492;28;20042;-87
2022/06/18 03:56:48;;;;;;;14.60;12.43;;;19.20;99.90;;;;;;4973763;28;20679;-86
2022/06/18 03:59:14;;;;;;;14.35;12.30;;;19.20;99.90;;;;;;4977726;28;20093;-87
2022/06/18 04:01:40;;;;;;;14.85;13.23;;;19.10;99.90;;;;;;4982377;28;20042;-87
2022/06/18 04:04:10;;;;;;;13.80;12.25;;;19.10;99.90;;;;;;4988162;28;20053;-86
2022/06/18 04:06:40;;;;;;;15.18;12.68;;;19.10;99.90;;;;;;5002225;28;20069;-86
2022/06/18 04:09:07;;;;;;;16.33;13.00;;;19.20;99.90;;;;;;4992159;28;20085;-87
2022/06/18 04:11:33;;;;;;;16.42;13.32;;;19.10;99.90;;;;;;4995429;28;20088;-86
2022/06/18 04:13:59;;;;;;;15.88;12.82;;;19.20;99.90;;;;;;4974804;28;20069;-87
2022/06/18 04:16:25;;;;;;;15.05;13.48;;;19.20;99.90;;;;;;4988523;28;20046;-85
2022/06/18 04:18:51;;;;;;;15.95;13.90;;;19.20;99.90;;;;;;4989953;28;20051;-88
2022/06/18 04:21:17;;;;;;;15.63;13.98;;;19.20;99.90;;;;;;5005718;28;20050;-87
2022/06/18 04:23:44;;;;;;;16.75;14.25;;;19.30;99.90;;;;;;4979354;28;20039;-85
2022/06/18 04:26:11;;;;;;;18.25;14.25;;;19.30;99.90;;;;;;4977571;28;20061;-88
2022/06/18 04:28:37;;;;;;;18.33;13.95;;;19.30;99.90;;;;;;4981339;28;20042;-86
2022/06/18 04:31:04;;;;;;;17.35;13.82;;;19.30;99.90;;;;;;4975436;28;21560;-88
2022/06/18 04:33:29;;;;;;;17.52;14.00;;;19.40;99.90;;;;;;4978151;28;20050;-87
2022/06/18 04:35:56;;;;;;;18.17;15.98;;;19.40;99.90;;;;;;4979409;28;20511;-88
2022/06/18 04:38:23;;;;;;;17.42;14.35;;;19.40;99.90;;;;;;4968000;28;20445;-88
2022/06/18 04:40:49;;;;;;;19.20;15.68;;;19.50;99.90;;;;;;4974874;28;20054;-87
2022/06/18 04:43:15;;;;;;;19.02;15.27;;;19.40;99.90;;;;;;4954612;28;20046;-88
2022/06/18 04:45:40;;;;;;;20.13;15.13;;;19.50;99.90;;;;;;4982045;28;20046;-87
2022/06/18 04:48:06;;;;;;;20.20;15.75;;;19.60;99.90;;;;;;4975765;28;20062;-89
2022/06/18 04:50:35;;;;;;;20.00;15.73;;;19.60;99.90;;;;;;4986320;28;20402;-88
2022/06/18 04:53:01;;;;;;;19.80;14.85;;;19.60;99.90;;;;;;4980813;28;20050;-88
2022/06/18 04:55:27;;;;;;;18.00;15.85;;;19.60;99.90;;;;;;4963955;28;20126;-89
2022/06/18 04:57:53;;;;;;;20.95;15.80;;;19.60;99.90;;;;;;4985163;28;20037;-89
2022/06/18 05:00:19;;;;;;;18.35;15.57;;;19.70;99.90;;;;;;4982572;28;20039;-88
2022/06/18 05:02:45;;;;;;;22.00;16.42;;;19.70;99.90;;;;;;4984304;28;20085;-89
2022/06/18 05:05:25;;;;;;;18.65;16.02;;;19.70;99.90;;;;;;4975214;28;20054;-89
2022/06/18 05:07:51;;;;;;;20.40;16.70;;;19.80;99.90;;;;;;4966247;28;20061;-87
2022/06/18 05:10:18;;;;;;;20.77;16.20;;;19.70;99.90;;;;;;4986657;28;20047;-88
2022/06/18 05:12:43;;;;;;;18.88;15.77;;;19.80;99.90;;;;;;4976791;28;20990;-88
2022/06/18 05:15:12;;;;;;;21.08;16.52;;;19.80;99.90;;;;;;4979447;28;20074;-89
2022/06/18 05:17:43;;;;;;;20.00;16.27;;;19.80;99.90;;;;;;4970192;28;20057;-87
2022/06/18 05:20:20;;;;;;;19.75;15.90;;;19.90;99.90;;;;;;4972983;28;20058;-87
2022/06/18 05:22:46;;;;;;;21.83;17.10;;;20.00;99.90;;;;;;4982003;28;20133;-86
2022/06/18 05:25:12;;;;;;;18.35;16.30;;;19.90;99.90;;;;;;4987423;28;20149;-88
2022/06/18 05:27:38;;;;;;;18.40;16.05;;;20.00;99.90;;;;;;4983570;28;20073;-87
2022/06/18 05:30:06;;;;;;;20.98;16.85;;;20.00;99.90;;;;;;4980012;28;20453;-89
2022/06/18 05:32:32;;;;;;;21.00;16.33;;;20.00;99.90;;;;;;4972101;28;20050;-88
2022/06/18 05:34:57;;;;;;;23.13;16.15;;;20.10;99.90;;;;;;4983559;28;20407;-88
2022/06/18 05:37:26;;;;;;;22.38;17.50;;;20.10;99.90;;;;;;4967280;28;20042;-88
2022/06/18 05:39:52;;;;;;;22.45;16.85;;;20.10;99.90;;;;;;4979123;28;20819;-89
2022/06/18 05:42:18;;;;;;;18.38;15.43;;;20.30;99.90;;;;;;4982757;28;20085;-88
2022/06/18 05:44:43;;;;;;;20.63;16.52;;;20.30;99.90;;;;;;4956198;28;20137;-88
2022/06/18 05:47:22;;;;;;;20.52;17.42;;;20.30;99.90;;;;;;4978539;28;20406;-88
2022/06/18 05:49:47;;;;;;;21.35;17.13;;;20.30;99.90;;;;;;4983987;28;20395;-89
2022/06/18 05:52:13;;;;;;;20.30;17.73;;;20.40;99.90;;;;;;4981729;28;20046;-87
2022/06/18 05:54:39;;;;;;;18.80;16.77;;;20.40;99.90;;;;;;4985811;28;20505;-90
2022/06/18 05:57:05;;;;;;;22.33;16.50;;;20.40;99.90;;;;;;4979977;28;20042;-87
2022/06/18 05:59:32;;;;;;;21.35;18.17;;;20.50;99.90;;;;;;4974619;28;20050;-89
2022/06/18 06:01:57;;;;;;;21.17;16.55;;;20.50;99.90;;;;;;4963581;28;20042;-90
2022/06/18 06:04:24;;;;;;;20.45;16.52;;;20.60;99.90;;;;;;4978378;28;20236;-88
2022/06/18 06:06:51;;;;;;;20.80;17.23;;;20.60;99.90;;;;;;4966695;28;20050;-89
2022/06/18 06:12:05;;;;;;;21.02;16.88;;;20.60;99.90;;;;;;4975541;28;20053;-87
2022/06/18 06:14:30;;;;;;;21.52;18.08;;;20.60;99.90;;;;;;4981442;28;20038;-88
2022/06/18 06:16:57;;;;;;;23.63;17.58;;;20.60;99.90;;;;;;4983048;28;20046;-89
2022/06/18 06:19:24;;;;;;;21.92;17.80;;;20.70;99.90;;;;;;4979446;28;20061;-90
2022/06/18 06:21:50;;;;;;;23.73;17.40;;;20.70;99.90;;;;;;4977092;28;20098;-88
2022/06/18 06:24:15;;;;;;;22.48;17.20;;;20.80;99.90;;;;;;4978855;28;20042;-90
2022/06/18 06:26:41;;;;;;;22.05;18.05;;;20.90;99.90;;;;;;4978189;28;20482;-90
2022/06/18 06:29:09;;;;;;;23.38;18.52;;;21.00;99.90;;;;;;4983356;28;20682;-91
2022/06/18 06:31:34;;;;;;;20.40;17.33;;;21.00;99.90;;;;;;4975026;28;20046;-91
2022/06/18 06:34:01;;;;;;;20.73;16.67;;;21.00;99.90;;;;;;4985052;28;20049;-87
2022/06/18 06:36:26;;;;;;;22.27;17.85;;;21.20;99.90;;;;;;4981670;28;20436;-89
2022/06/18 06:38:52;;;;;;;22.38;18.02;;;21.20;99.90;;;;;;4984394;28;20096;-90
2022/06/18 06:41:22;;;;;;;20.40;17.45;;;21.20;99.90;;;;;;4978250;28;20054;-90
2022/06/18 06:43:48;;;;;;;24.33;17.25;;;21.20;99.90;;;;;;4979797;28;20088;-87
2022/06/18 06:46:15;;;;;;;21.65;17.40;;;21.20;99.90;;;;;;4980674;28;20079;-89
2022/06/18 06:48:42;;;;;;;21.88;17.20;;;21.30;99.90;;;;;;4981139;28;20488;-89
2022/06/18 06:51:14;;;;;;;20.50;16.83;;;21.30;99.90;;;;;;4979020;28;20498;-91
2022/06/18 06:53:40;;;;;;;21.17;16.70;;;21.40;99.90;;;;;;4961211;28;20034;-91
2022/06/18 06:58:54;;;;;;;19.60;15.00;;;21.50;99.90;;;;;;4977842;28;20046;-92
2022/06/18 07:01:20;;;;;;;19.23;15.20;;;21.60;99.90;;;;;;4980783;28;20034;-92
2022/06/18 07:03:46;;;;;;;18.95;12.82;;;21.70;99.90;;;;;;4982400;28;20120;-92
2022/06/18 07:06:13;;;;;;;18.20;13.65;;;21.90;99.90;;;;;;4965059;28;20050;-94
2022/06/18 07:08:39;;;;;;;15.55;12.27;;;21.80;99.90;;;;;;4980064;28;20463;-93
2022/06/18 07:11:05;;;;;;;16.80;12.15;;;21.90;99.90;;;;;;4981568;28;20054;-90
2022/06/18 07:13:31;;;;;;;18.80;13.07;;;22.00;99.90;;;;;;4981245;28;20043;-91
2022/06/18 07:15:57;;;;;;;15.07;12.30;;;22.00;99.90;;;;;;4961378;28;20042;-88
2022/06/18 07:18:25;;;;;;;18.10;11.57;;;22.10;99.90;;;;;;4963495;28;20078;-89
2022/06/18 07:20:51;;;;;;;18.35;11.93;;;22.10;99.90;;;;;;4977587;28;20046;-90
2022/06/18 07:23:17;;;;;;;16.38;11.35;;;22.30;99.90;;;;;;4982937;28;20042;-93
2022/06/18 07:25:43;;;;;;;13.60;10.40;;;22.20;99.90;;;;;;4965549;28;20502;-92
2022/06/18 07:28:09;;;;;;;14.52;10.57;;;22.30;99.90;;;;;;4965162;28;20118;-93
2022/06/18 07:30:36;;;;;;;13.30;9.88;;;22.30;99.90;;;;;;4978887;28;20045;-92
2022/06/18 07:33:02;;;;;;;16.05;11.52;;;22.30;99.90;;;;;;4985800;28;20057;-92
2022/06/18 07:35:31;;;;;;;16.52;10.57;;;22.40;99.90;;;;;;4960096;28;20057;-94
2022/06/18 07:37:57;;;;;;;16.70;10.45;;;22.40;99.90;;;;;;4961488;28;20436;-95
2022/06/18 07:40:24;;;;;;;15.30;9.55;;;22.50;99.90;;;;;;4962800;28;20042;-92
2022/06/18 07:42:53;;;;;;;15.05;8.05;;;22.50;99.90;;;;;;4980191;28;20395;-93
2022/06/18 07:45:24;;;;;;;16.25;9.68;;;22.60;99.90;;;;;;4979403;28;20096;-91
2022/06/18 07:47:51;;;;;;;11.80;7.30;;;22.70;99.90;;;;;;4981334;28;20053;-90
2022/06/18 07:50:19;;;;;;;11.98;6.00;;;22.80;99.90;;;;;;4982716;28;20129;-91
2022/06/18 07:52:44;;;;;;;12.93;7.47;;;22.80;99.90;;;;;;4966312;28;20042;-93
2022/06/18 07:55:36;;;;;;;12.25;8.05;;;22.90;99.90;;;;;;4995814;28;20061;-94
2022/06/18 07:58:02;;;;;;;13.23;7.00;;;23.00;99.90;;;;;;4962628;28;20047;-91
2022/06/18 08:00:28;;;;;;;10.00;6.65;;;23.00;99.90;;;;;;4985142;28;20046;-94
2022/06/18 08:02:53;;;;;;;12.23;7.10;;;23.00;99.90;;;;;;4978268;28;20070;-91
2022/06/18 08:05:22;;;;;;;12.88;6.95;;;23.10;99.90;;;;;;4983756;28;20053;-90
2022/06/18 08:07:48;;;;;;;12.50;6.57;;;23.10;99.90;;;;;;4962183;28;20133;-91
2022/06/18 08:10:14;;;;;;;14.82;7.80;;;23.20;99.90;;;;;;4975788;28;20130;-88
2022/06/18 08:12:40;;;;;;;13.57;6.80;;;23.20;99.90;;;;;;4973897;28;20490;-89
2022/06/18 08:15:06;;;;;;;12.15;6.30;;;23.20;99.90;;;;;;4976792;28;20053;-89
2022/06/18 08:17:32;;;;;;;12.95;7.35;;;23.30;99.90;;;;;;4968311;28;20059;-88
2022/06/18 08:19:57;;;;;;;11.25;5.68;;;23.20;99.90;;;;;;4982293;28;20392;-90
2022/06/18 08:22:24;;;;;;;10.45;6.35;;;23.30;99.90;;;;;;4985932;28;20038;-87
2022/06/18 08:24:50;;;;;;;10.93;5.70;;;23.40;99.90;;;;;;4983182;28;20090;-90
2022/06/18 08:27:17;;;;;;;12.55;6.38;;;23.50;99.90;;;;;;4991443;28;20453;-88
2022/06/18 08:29:43;;;;;;;9.63;5.93;;;23.60;99.90;;;;;;4979497;28;20597;-88
2022/06/18 08:32:09;;;;;;;12.00;5.70;;;23.60;99.90;;;;;;4987498;28;20050;-88
2022/06/18 08:34:35;;;;;;;11.65;5.95;;;23.50;99.90;;;;;;4982825;28;20599;-89
2022/06/18 08:37:04;;;;;;;11.05;6.47;;;23.70;99.90;;;;;;4980307;28;20411;-89
2022/06/18 08:39:32;;;;;;;11.67;5.90;;;23.80;99.90;;;;;;4977660;28;20057;-91
2022/06/18 08:42:00;;;;;;;13.43;6.47;;;23.70;99.90;;;;;;4983016;28;20082;-91
2022/06/18 08:44:31;;;;;;;13.57;6.10;;;23.70;99.90;;;;;;4994654;28;20076;-87
2022/06/18 08:47:09;;;;;;;12.57;6.07;;;23.60;99.90;;;;;;4980154;28;20058;-88
2022/06/18 08:50:01;;;;;;;11.32;6.13;;;23.60;99.90;;;;;;4992733;28;20047;-89
2022/06/18 08:52:42;;;;;;;11.18;5.72;;;23.70;99.90;;;;;;4955468;28;20058;-88
2022/06/18 08:55:25;;;;;;;12.77;6.10;;;23.70;99.90;;;;;;4984061;28;20050;-92
2022/06/18 08:58:13;;;;;;;9.30;5.68;;;23.80;99.90;;;;;;4967869;28;20454;-87
2022/06/18 09:01:00;;;;;;;10.95;5.97;;;23.80;99.90;;;;;;4972227;28;20042;-88
2022/06/18 09:03:52;;;;;;;11.05;5.88;;;23.80;99.90;;;;;;4983108;28;20097;-86
2022/06/18 09:06:21;;;;;;;9.13;5.00;;;23.90;99.90;;;;;;4982029;28;20049;-87
2022/06/18 09:09:13;;;;;;;10.57;5.22;;;23.80;99.90;;;;;;4971476;28;20054;-88
2022/06/18 09:11:54;;;;;;;11.57;4.68;;;23.90;99.90;;;;;;4983578;28;20124;-86
2022/06/18 09:14:33;;;;;;;9.95;5.55;;;23.90;99.90;;;;;;4977684;28;20531;-86
2022/06/18 09:17:25;;;;;;;10.18;5.20;;;23.90;99.90;;;;;;4977379;28;20047;-86
2022/06/18 09:19:57;;;;;;;9.77;4.53;;;23.90;99.90;;;;;;4984549;28;20090;-86
2022/06/18 09:22:25;;;;;;;10.15;4.88;;;24.00;99.90;;;;;;4981456;28;20500;-85
2022/06/18 09:24:56;;;;;;;9.43;4.53;;;24.10;99.90;;;;;;4978914;28;20113;-87
2022/06/18 09:27:25;;;;;;;8.82;4.72;;;24.10;99.90;;;;;;4972138;28;20060;-88
2022/06/18 09:30:13;;;;;;;9.18;4.78;;;24.20;99.90;;;;;;4978197;28;20133;-88
2022/06/18 09:32:54;;;;;;;8.25;4.63;;;24.20;99.90;;;;;;4973758;28;20042;-87
2022/06/18 09:35:40;;;;;;;10.27;4.50;;;24.20;99.90;;;;;;4981351;28;20058;-85
2022/06/18 09:38:12;;;;;;;9.80;4.43;;;24.20;99.90;;;;;;4971279;28;20383;-87
2022/06/18 09:40:48;;;;;;;9.32;4.50;;;24.20;99.90;;;;;;4976115;28;20530;-88
2022/06/18 09:43:32;;;;;;;10.52;4.70;;;24.20;99.90;;;;;;4975561;28;20062;-87
2022/06/18 09:46:01;;;;;;;9.63;4.40;;;24.20;99.90;;;;;;4979522;28;20431;-85
2022/06/18 09:48:27;;;;;;;11.93;4.97;;;24.20;99.90;;;;;;4977299;28;20069;-86
2022/06/18 09:50:59;;;;;;;11.55;5.40;;;24.20;99.90;;;;;;4978895;28;20506;-86
2022/06/18 09:53:28;;;;;;;7.35;3.83;;;24.20;99.90;;;;;;4978312;28;20053;-86
2022/06/18 09:56:11;;;;;;;7.90;4.00;;;24.20;99.90;;;;;;4978619;28;20050;-88
2022/06/18 09:58:45;;;;;;;7.95;4.25;;;24.30;99.90;;;;;;4976533;28;20125;-86
2022/06/18 10:01:20;;;;;;;9.48;4.22;;;24.30;99.90;;;;;;4982033;28;20418;-86
2022/06/18 10:09:25;;;;;;;9.25;4.85;;;24.30;99.90;;;;;;4977144;28;20054;-88
2022/06/18 10:11:51;;;;;;;10.70;4.70;;;24.40;99.90;;;;;;4976552;28;20093;-87
2022/06/18 10:14:20;;;;;;;10.35;4.45;;;24.40;99.90;;;;;;4984939;28;20042;-87
2022/06/18 10:17:11;;;;;;;10.13;4.40;;;24.40;99.90;;;;;;4972954;28;20137;-85
2022/06/18 10:20:00;;;;;;;9.27;4.60;;;24.40;99.90;;;;;;4981342;28;20069;-85
2022/06/18 10:22:55;;;;;;;9.73;5.07;;;24.40;99.90;;;;;;4974878;28;20137;-88
2022/06/18 10:25:42;;;;;;;10.15;4.28;;;24.40;99.90;;;;;;4975541;28;20500;-87
2022/06/18 10:28:24;;;;;;;9.65;4.60;;;24.40;99.90;;;;;;4982773;28;20464;-88
2022/06/18 10:31:04;;;;;;;11.10;4.70;;;24.40;99.90;;;;;;4970296;28;20399;-88
2022/06/18 10:33:53;;;;;;;9.82;5.05;;;24.50;99.90;;;;;;4978189;28;20452;-88
2022/06/18 10:36:37;;;;;;;8.80;4.80;;;24.50;99.90;;;;;;4975974;28;20526;-88
2022/06/18 10:39:33;;;;;;;10.43;4.70;;;24.50;99.90;;;;;;4954679;28;20046;-87
2022/06/18 10:42:05;;;;;;;9.90;4.75;;;24.50;99.90;;;;;;4954309;28;20062;-89
2022/06/18 10:44:41;;;;;;;10.13;4.60;;;24.60;99.90;;;;;;4972269;28;20150;-85
2022/06/18 10:47:12;;;;;;;8.30;3.95;;;24.60;99.90;;;;;;4963532;28;20073;-86
2022/06/18 10:49:37;;;;;;;10.50;4.57;;;24.70;99.90;;;;;;4979699;28;20072;-85
2022/06/18 10:52:03;;;;;;;9.20;4.20;;;24.80;99.90;;;;;;4976341;28;20047;-88
2022/06/18 10:54:33;;;;;;;10.00;4.60;;;24.80;99.90;;;;;;4977728;28;20388;-87
2022/06/18 10:57:00;;;;;;;7.90;4.28;;;24.90;99.90;;;;;;4972507;28;20051;-87
2022/06/18 10:59:29;;;;;;;8.32;4.03;;;25.00;99.90;;;;;;4976364;28;20050;-86
2022/06/18 11:01:55;;;;;;;10.18;4.63;;;24.90;99.90;;;;;;4978166;28;20062;-87
2022/06/18 11:04:24;;;;;;;9.38;3.90;;;24.90;99.90;;;;;;4975720;28;20043;-88
2022/06/18 11:07:02;;;;;;;10.55;3.90;;;24.90;99.90;;;;;;4977294;28;20042;-84
2022/06/18 11:09:31;;;;;;;8.65;4.10;;;24.90;99.90;;;;;;4964764;28;20398;-88
2022/06/18 11:12:01;;;;;;;8.32;3.80;;;25.00;99.90;;;;;;4977839;28;20373;-88
2022/06/18 11:14:27;;;;;;;8.93;4.07;;;25.00;99.90;;;;;;4970078;28;20049;-87
2022/06/18 11:16:55;;;;;;;11.13;4.10;;;25.20;99.90;;;;;;4986907;28;20050;-88
2022/06/18 11:19:35;;;;;;;8.65;3.60;;;25.20;99.90;;;;;;4973315;28;20093;-87
2022/06/18 11:22:26;;;;;;;7.28;3.50;;;25.30;99.90;;;;;;4980270;28;20101;-86
2022/06/18 11:25:00;;;;;;;8.55;3.90;;;25.30;99.90;;;;;;4967894;28;20427;-87
2022/06/18 11:27:33;;;;;;;8.13;3.67;;;25.40;99.90;;;;;;4984470;28;20054;-87
2022/06/18 11:30:04;;;;;;;8.13;3.83;;;25.30;99.90;;;;;;4973346;28;20506;-87
2022/06/18 11:32:35;;;;;;;11.32;4.00;;;25.30;99.90;;;;;;4970029;28;20047;-88
2022/06/18 11:35:10;;;;;;;9.55;3.63;;;25.40;99.90;;;;;;4967771;28;20039;-87
2022/06/18 11:37:35;;;;;;;9.38;3.90;;;25.50;99.90;;;;;;4976116;28;20550;-88
2022/06/18 11:40:18;;;;;;;9.15;3.30;;;25.60;99.90;;;;;;4956408;28;20129;-88
2022/06/18 11:42:55;;;;;;;7.68;3.42;;;25.50;99.90;;;;;;4966920;28;20043;-88
2022/06/18 11:45:30;;;;;;;7.35;3.25;;;25.60;99.90;;;;;;4972527;28;20054;-85
2022/06/18 11:48:20;;;;;;;8.57;3.50;;;25.50;99.90;;;;;;4978769;28;20085;-85
2022/06/18 11:51:02;;;;;;;8.98;3.70;;;25.50;99.90;;;;;;4979558;28;20146;-88
2022/06/18 11:53:55;;;;;;;7.40;3.25;;;25.40;99.90;;;;;;4991480;28;20109;-88
2022/06/18 11:56:49;;;;;;;8.15;3.25;;;25.50;99.90;;;;;;4979561;28;20058;-85
2022/06/18 11:59:25;;;;;;;7.63;3.90;;;25.50;99.90;;;;;;4974444;28;20058;-88
2022/06/18 12:01:55;;;;;;;8.38;3.58;;;25.60;99.90;;;;;;4971586;28;20043;-88
2022/06/18 12:04:39;;;;;;;10.30;3.28;;;25.70;99.90;;;;;;4975772;28;20137;-88
2022/06/18 12:07:17;;;;;;;8.52;3.88;;;25.70;99.90;;;;;;4968664;28;20051;-88
2022/06/18 12:09:43;;;;;;;9.18;3.85;;;25.80;99.90;;;;;;4972083;28;20577;-88
2022/06/18 12:12:30;;;;;;;10.27;4.35;;;25.90;99.90;;;;;;4966512;28;20058;-87
2022/06/18 12:15:04;;;;;;;9.02;3.88;;;26.00;99.90;;;;;;4980206;28;20038;-89
2022/06/18 12:17:44;;;;;;;6.32;2.53;;;26.10;99.90;;;;;;4985598;28;20039;-88
2022/06/18 12:20:40;;;;;;;8.02;2.75;;;26.20;99.90;;;;;;4977510;28;20125;-87
2022/06/18 12:23:14;;;;;;;8.15;3.28;;;26.20;99.90;;;;;;4972477;28;20050;-88
2022/06/18 12:25:51;;;;;;;8.73;3.22;;;26.20;99.90;;;;;;4970275;28;20144;-87
2022/06/18 12:28:27;;;;;;;7.68;2.80;;;26.20;99.90;;;;;;4974488;28;20169;-87
2022/06/18 12:31:01;;;;;;;8.25;2.75;;;26.20;99.90;;;;;;4983052;28;20052;-87
2022/06/18 12:33:41;;;;;;;5.97;2.30;;;26.20;99.90;;;;;;4974655;28;21011;-87
2022/06/18 12:36:25;;;;;;;5.70;2.75;;;26.10;99.90;;;;;;4983428;28;20042;-85
2022/06/18 12:39:26;;;;;;;6.40;2.20;;;26.00;99.90;;;;;;4964200;28;20141;-87
2022/06/18 12:42:18;;;;;;;7.00;2.35;;;26.10;99.90;;;;;;4953859;28;20113;-85
2022/06/18 12:44:50;;;;;;;6.70;2.20;;;26.10;99.90;;;;;;4977530;28;20154;-88
2022/06/18 12:47:19;;;;;;;7.47;2.30;;;26.00;99.90;;;;;;4974254;28;20060;-88
2022/06/18 12:50:06;;;;;;;4.60;1.98;;;26.10;99.90;;;;;;4972711;28;20047;-87
2022/06/18 12:52:49;;;;;;;6.00;2.10;;;26.10;99.90;;;;;;4974799;28;20424;-87
2022/06/18 12:55:40;;;;;;;5.38;2.30;;;25.90;99.90;;;;;;4975004;28;20050;-87
2022/06/18 12:58:38;;;;;;;6.90;2.20;;;25.90;99.90;;;;;;4972280;28;20051;-87
2022/06/18 13:01:36;;;;;;;5.43;1.80;;;25.80;99.90;;;;;;4971738;28;20046;-88
2022/06/18 13:04:13;;;;;;;6.18;2.00;;;25.80;99.90;;;;;;4956025;28;20086;-87
2022/06/18 13:06:53;;;;;;;5.65;2.15;;;25.70;99.90;;;;;;4979620;28;20126;-86
2022/06/18 13:09:34;;;;;;;5.03;1.80;;;25.60;99.90;;;;;;4975060;28;20049;-87
2022/06/18 13:12:12;;;;;;;4.70;1.80;;;25.60;99.90;;;;;;4982427;28;20047;-87
2022/06/18 13:14:38;;;;;;;5.47;2.17;;;25.70;99.90;;;;;;4985815;28;20104;-87